createdAt,value
2023-05-05T00:00:28.870Z,100559.09
2023-05-05T00:02:57.000Z,100524.13
2023-05-05T00:05:25.415Z,100533.94
2023-05-05T00:07:53.143Z,100537.13
2023-05-05T00:10:20.941Z,100489.69
2023-05-05T00:12:48.941Z,100524.31
2023-05-05T00:15:19.121Z,100540.72
2023-05-05T00:17:46.794Z,100541.72
2023-05-05T00:20:14.942Z,100538.09
2023-05-05T00:22:42.663Z,100549.19
2023-05-05T00:25:10.782Z,100560.53
2023-05-05T00:27:40.262Z,100515.44
2023-05-05T00:30:09.598Z,100529.19
2023-05-05T00:32:38.866Z,100474.66
2023-05-05T00:35:07.238Z,100489.84
2023-05-05T00:37:35.000Z,100425.94
2023-05-05T00:40:03.113Z,100349.25
2023-05-05T00:42:39.407Z,100255.03
2023-05-05T00:45:08.645Z,100243.34
2023-05-05T00:47:38.510Z,100154.03
2023-05-05T00:50:09.251Z,100067.91
2023-05-05T00:52:37.864Z,99960.38
2023-05-05T00:55:07.096Z,99870.91
2023-05-05T00:57:36.646Z,99798.56
2023-05-05T01:00:06.017Z,99733.22
2023-05-05T01:02:34.248Z,99704.66
2023-05-05T01:05:03.693Z,99661.34
2023-05-05T01:07:37.695Z,99608.41
2023-05-05T01:10:20.198Z,99544.31
2023-05-05T01:12:54.960Z,99464.41
2023-05-05T01:15:32.943Z,99473.72
2023-05-05T01:18:08.036Z,99443.50
2023-05-05T01:20:49.071Z,99391.63
2023-05-05T01:23:28.350Z,99435.22
2023-05-05T01:26:11.920Z,99324.28
2023-05-05T01:29:01.647Z,99181.00
2023-05-05T01:31:51.684Z,99087.72
2023-05-05T01:34:25.128Z,99095.19
2023-05-05T01:36:59.360Z,99121.72
2023-05-05T01:39:34.480Z,99246.13
2023-05-05T01:42:07.486Z,99044.81
2023-05-05T01:44:37.699Z,99032.25
2023-05-05T01:47:07.573Z,99048.66
2023-05-05T01:49:37.656Z,99020.84
2023-05-05T01:52:07.039Z,98989.50
2023-05-05T01:54:36.184Z,98930.06
2023-05-05T01:57:05.884Z,98869.81
2023-05-05T01:59:35.053Z,98792.28
2023-05-05T02:02:04.312Z,98753.31
2023-05-05T02:04:34.554Z,98737.31
2023-05-05T02:07:04.350Z,98747.59
2023-05-05T02:09:33.553Z,98646.31
2023-05-05T02:12:02.672Z,98577.00
2023-05-05T02:14:31.424Z,98602.22
2023-05-05T02:16:59.530Z,98483.16
2023-05-05T02:19:30.430Z,98397.00
2023-05-05T02:21:59.584Z,98308.78
2023-05-05T02:24:27.466Z,98259.13
2023-05-05T02:26:58.070Z,98255.22
2023-05-05T02:29:32.333Z,98295.13
2023-05-05T02:32:04.610Z,98409.91
2023-05-05T02:34:36.731Z,98508.91
2023-05-05T02:37:11.150Z,98462.16
2023-05-05T02:39:44.118Z,98484.25
2023-05-05T02:42:16.385Z,98481.84
2023-05-05T02:44:46.515Z,98490.00
2023-05-05T02:47:14.478Z,98461.09
2023-05-05T02:49:43.547Z,98487.91
2023-05-05T02:52:12.692Z,98493.41
2023-05-05T02:54:40.412Z,98467.91
2023-05-05T02:57:10.769Z,98423.81
2023-05-05T02:59:47.447Z,98421.19
2023-05-05T03:02:20.653Z,98408.84
2023-05-05T03:04:55.224Z,98412.72
2023-05-05T03:07:28.723Z,98380.19
2023-05-05T03:10:03.771Z,98371.50
2023-05-05T03:12:38.444Z,98351.28
2023-05-05T03:15:09.988Z,98308.78
2023-05-05T03:17:38.750Z,98305.09
2023-05-05T03:20:08.844Z,98274.41
2023-05-05T03:22:38.542Z,98266.81
2023-05-05T03:25:07.308Z,98270.75
2023-05-05T03:27:34.973Z,98301.69
2023-05-05T03:30:02.894Z,98327.41
2023-05-05T03:32:30.995Z,98365.97
2023-05-05T03:34:58.753Z,98384.84
2023-05-05T03:37:26.399Z,98408.97
2023-05-05T03:39:55.435Z,98423.13
2023-05-05T03:42:23.092Z,98507.06
2023-05-05T03:44:53.443Z,98545.31
2023-05-05T03:47:21.151Z,98533.25
2023-05-05T03:49:48.949Z,98530.34
2023-05-05T03:52:16.666Z,98536.69
2023-05-05T03:54:46.191Z,98550.03
2023-05-05T03:57:15.263Z,98565.25
2023-05-05T03:59:42.974Z,98589.84
2023-05-05T04:02:10.711Z,98610.41
2023-05-05T04:04:38.475Z,98628.88
2023-05-05T04:07:06.167Z,98623.38
2023-05-05T04:09:33.861Z,98596.06
2023-05-05T04:12:01.611Z,98596.56
2023-05-05T04:14:30.731Z,98566.56
2023-05-05T04:16:58.394Z,98557.66
2023-05-05T04:19:26.141Z,98555.91
2023-05-05T04:21:53.831Z,98566.03
2023-05-05T04:24:24.722Z,98558.47
2023-05-05T04:26:52.412Z,98578.63
2023-05-05T04:29:20.110Z,98571.69
2023-05-05T04:31:50.028Z,98566.03
2023-05-05T04:34:17.817Z,98607.16
2023-05-05T04:36:45.543Z,98610.81
2023-05-05T04:39:13.217Z,98612.09
2023-05-05T04:41:41.009Z,98660.13
2023-05-05T04:44:08.770Z,98646.22
2023-05-05T04:46:36.491Z,98655.16
2023-05-05T04:49:05.915Z,98673.97
2023-05-05T04:51:33.617Z,98713.34
2023-05-05T04:54:01.318Z,98743.19
2023-05-05T04:56:31.721Z,98722.22
2023-05-05T04:58:59.666Z,98745.31
2023-05-05T05:01:27.407Z,98742.75
2023-05-05T05:03:55.096Z,98739.56
2023-05-05T05:06:24.203Z,98737.41
2023-05-05T05:08:52.034Z,98682.81
2023-05-05T05:11:19.772Z,98643.38
2023-05-05T05:13:47.416Z,98650.03
2023-05-05T05:16:15.228Z,98636.81
2023-05-05T05:18:43.099Z,98614.78
2023-05-05T05:21:10.772Z,98570.47
2023-05-05T05:23:39.876Z,98548.28
2023-05-05T05:26:07.552Z,98531.81
2023-05-05T05:28:35.282Z,98555.47
2023-05-05T05:31:03.016Z,98575.47
2023-05-05T05:33:30.705Z,98569.72
2023-05-05T05:35:58.343Z,98555.59
2023-05-05T05:38:26.089Z,98553.03
2023-05-05T05:40:55.455Z,98567.44
2023-05-05T05:43:23.098Z,98552.69
2023-05-05T05:45:51.988Z,98529.88
2023-05-05T05:48:20.043Z,98502.91
2023-05-05T05:50:47.756Z,98499.81
2023-05-05T05:53:15.410Z,98499.53
2023-05-05T05:55:43.074Z,98491.88
2023-05-05T05:58:12.087Z,98499.25
2023-05-05T06:00:39.821Z,98503.78
2023-05-05T06:03:07.919Z,98507.72
2023-05-05T06:05:35.748Z,98509.88
2023-05-05T06:08:03.383Z,98507.03
2023-05-05T06:10:31.276Z,98544.59
2023-05-05T06:12:59.089Z,98560.34
2023-05-05T06:15:28.247Z,98561.94
2023-05-05T06:17:55.986Z,98552.50
2023-05-05T06:20:23.734Z,98555.13
2023-05-05T06:22:51.530Z,98558.06
2023-05-05T06:25:19.154Z,98592.75
2023-05-05T06:27:47.148Z,98625.06
2023-05-05T06:30:15.613Z,98669.50
2023-05-05T06:32:44.662Z,98702.13
2023-05-05T06:35:12.346Z,98721.81
2023-05-05T06:37:40.065Z,98749.75
2023-05-05T06:40:10.367Z,98772.94
2023-05-05T06:42:38.394Z,98790.34
2023-05-05T06:45:06.919Z,98812.19
2023-05-05T06:47:34.752Z,98884.50
2023-05-05T06:50:03.885Z,98910.78
2023-05-05T06:52:31.628Z,98948.22
2023-05-05T06:54:59.374Z,98974.56
2023-05-05T06:57:27.005Z,99009.06
2023-05-05T06:59:54.915Z,99054.44
2023-05-05T07:02:24.020Z,99076.03
2023-05-05T07:04:55.409Z,99114.59
2023-05-05T07:07:24.562Z,99163.31
2023-05-05T07:09:52.207Z,99208.66
2023-05-05T07:12:20.038Z,99237.53
2023-05-05T07:14:47.871Z,99263.75
2023-05-05T07:17:16.033Z,99352.19
2023-05-05T07:19:44.175Z,99403.59
2023-05-05T07:22:11.860Z,99427.09
2023-05-05T07:24:41.175Z,99389.56
2023-05-05T07:27:09.006Z,99436.09
2023-05-05T07:29:36.732Z,99508.88
2023-05-05T07:32:04.629Z,99589.91
2023-05-05T07:34:34.216Z,99587.13
2023-05-05T07:37:01.933Z,99627.38
2023-05-05T07:39:29.550Z,99608.03
2023-05-05T07:41:58.660Z,99607.97
2023-05-05T07:44:26.671Z,99571.38
2023-05-05T07:46:54.489Z,99656.00
2023-05-05T07:49:22.376Z,99756.25
2023-05-05T07:51:50.274Z,99747.38
2023-05-05T07:54:18.346Z,99747.31
2023-05-05T07:56:46.234Z,99777.25
2023-05-05T07:59:15.469Z,99734.94
2023-05-05T08:01:43.479Z,99780.31
2023-05-05T08:04:11.245Z,99878.97
2023-05-05T08:06:39.012Z,99924.34
2023-05-05T08:09:06.684Z,99942.38
2023-05-05T08:11:34.524Z,99923.19
2023-05-05T08:14:02.185Z,100001.16
2023-05-05T08:16:31.397Z,99980.41
2023-05-05T08:18:59.177Z,100099.31
2023-05-05T08:21:27.699Z,100140.97
2023-05-05T08:23:55.405Z,100166.44
2023-05-05T08:26:23.563Z,100101.41
2023-05-05T08:28:55.092Z,100279.19
2023-05-05T08:31:22.952Z,100245.88
2023-05-05T08:33:51.906Z,100414.94
2023-05-05T08:36:19.535Z,100455.56
2023-05-05T08:38:47.552Z,100534.97
2023-05-05T08:41:18.535Z,100557.19
2023-05-05T08:43:47.287Z,100543.56
2023-05-05T08:46:15.129Z,100514.94
2023-05-05T08:48:45.882Z,100559.47
2023-05-05T08:51:19.480Z,100500.69
2023-05-05T08:53:53.416Z,100505.81
2023-05-05T08:56:22.338Z,100684.09
2023-05-05T08:58:51.886Z,100651.53
2023-05-05T09:01:19.643Z,100531.97
2023-05-05T09:03:47.383Z,100536.75
2023-05-05T09:06:16.761Z,100538.94
2023-05-05T09:08:44.484Z,100693.84
2023-05-05T09:11:12.227Z,100781.78
2023-05-05T09:13:40.055Z,100563.16
2023-05-05T09:16:08.357Z,100570.78
2023-05-05T09:18:38.241Z,100686.75
2023-05-05T09:21:22.917Z,100745.41
2023-05-05T09:24:10.476Z,100543.59
2023-05-05T09:26:41.316Z,100762.72
2023-05-05T09:29:09.046Z,100807.63
2023-05-05T09:31:37.970Z,100759.44
2023-05-05T09:34:15.181Z,100661.84
2023-05-05T09:36:47.580Z,100635.91
2023-05-05T09:39:17.765Z,100614.84
2023-05-05T09:41:45.531Z,100438.34
2023-05-05T09:44:15.997Z,100494.28
2023-05-05T09:46:51.872Z,100295.16
2023-05-05T09:49:23.406Z,100195.88
2023-05-05T09:51:52.896Z,99989.69
2023-05-05T09:54:24.561Z,99776.72
2023-05-05T09:56:52.479Z,99636.44
2023-05-05T09:59:22.983Z,99530.03
2023-05-05T10:06:13.386Z,99199.31
2023-05-05T10:09:04.508Z,99121.38
2023-05-05T10:11:48.779Z,99199.50
2023-05-05T10:14:21.281Z,99253.88
2023-05-05T10:19:49.095Z,99371.88
2023-05-05T10:22:17.051Z,99383.50
2023-05-05T10:24:52.162Z,99405.47
2023-05-05T10:27:21.534Z,99438.50
2023-05-05T10:29:56.126Z,99467.97
2023-05-05T10:32:53.972Z,99460.59
2023-05-05T10:35:18.272Z,99458.97
2023-05-05T10:37:46.477Z,99496.19
2023-05-05T10:40:16.579Z,99451.81
2023-05-05T10:42:44.699Z,99393.50
2023-05-05T10:45:12.434Z,99370.69
2023-05-05T10:47:40.976Z,99348.78
2023-05-05T10:50:12.678Z,99301.09
2023-05-05T10:52:47.946Z,99194.63
2023-05-05T10:55:19.344Z,99089.00
2023-05-05T10:57:47.465Z,99020.34
2023-05-05T11:00:48.754Z,98901.13
2023-05-05T11:03:24.231Z,98806.16
2023-05-05T11:06:12.532Z,98843.03
2023-05-05T11:08:42.055Z,98873.28
2023-05-05T11:11:13.053Z,98837.41
2023-05-05T11:13:41.566Z,98822.19
2023-05-05T11:16:47.908Z,98887.50
2023-05-05T11:19:48.227Z,98931.44
2023-05-05T11:22:16.700Z,98922.13
2023-05-05T11:24:44.821Z,98870.28
2023-05-05T11:27:13.853Z,98783.47
2023-05-05T11:30:07.195Z,98762.41
2023-05-05T11:32:35.899Z,98734.75
2023-05-05T11:35:03.921Z,98670.06
2023-05-05T11:37:31.565Z,98644.56
2023-05-05T11:40:08.670Z,98636.13
2023-05-05T11:42:37.970Z,98582.50
2023-05-05T11:45:21.438Z,98522.56
2023-05-05T11:47:49.359Z,98438.50
2023-05-05T11:50:19.903Z,98389.09
2023-05-05T11:52:48.712Z,98373.38
2023-05-05T11:55:22.130Z,98322.97
2023-05-05T11:57:51.534Z,98260.78
2023-05-05T12:00:19.981Z,98154.75
2023-05-05T12:02:47.867Z,98046.03
2023-05-05T12:05:21.145Z,97951.16
2023-05-05T12:07:49.108Z,97908.88
2023-05-05T12:10:23.737Z,97890.81
2023-05-05T12:12:55.205Z,97911.91
2023-05-05T12:15:30.772Z,97969.28
2023-05-05T12:18:00.105Z,97990.25
2023-05-05T12:20:35.050Z,98041.44
2023-05-05T12:23:04.391Z,98025.84
2023-05-05T12:25:40.252Z,98041.84
2023-05-05T12:28:10.114Z,98067.16
2023-05-05T12:30:38.032Z,98104.00
2023-05-05T12:33:06.900Z,98128.97
2023-05-05T12:35:35.273Z,98187.56
2023-05-05T12:38:03.142Z,98150.31
2023-05-05T12:40:47.908Z,98134.31
2023-05-05T12:43:30.366Z,98058.94
2023-05-05T12:46:08.594Z,98061.78
2023-05-05T12:48:37.919Z,98057.34
2023-05-05T12:51:17.248Z,98035.66
2023-05-05T12:53:45.587Z,98041.28
2023-05-05T12:56:34.724Z,98131.81
2023-05-05T12:59:05.450Z,98183.34
2023-05-05T13:01:33.479Z,98183.81
2023-05-05T13:04:09.715Z,98216.66
2023-05-05T13:06:37.918Z,98217.06
2023-05-05T13:09:05.821Z,98235.47
2023-05-05T13:11:37.123Z,98291.47
2023-05-05T13:14:07.776Z,98323.78
2023-05-05T13:16:35.968Z,98328.00
2023-05-05T13:19:03.712Z,98315.38
2023-05-05T13:21:31.537Z,98321.41
2023-05-05T13:24:16.238Z,98305.38
2023-05-05T13:26:47.025Z,98297.47
2023-05-05T13:29:16.419Z,98313.25
2023-05-05T13:31:44.294Z,98309.31
2023-05-05T13:34:12.111Z,98300.63
2023-05-05T13:36:39.749Z,98306.69
2023-05-05T13:39:09.282Z,98334.81
2023-05-05T13:41:37.062Z,98345.81
2023-05-05T13:44:04.933Z,98341.59
2023-05-05T13:46:34.028Z,98350.00
2023-05-05T13:49:01.715Z,98329.00
2023-05-05T13:51:29.484Z,98313.53
2023-05-05T13:53:57.156Z,98318.25
2023-05-05T13:56:26.329Z,98299.09
2023-05-05T13:58:54.365Z,98271.00
2023-05-05T14:01:22.229Z,98269.44
2023-05-05T14:03:51.358Z,98243.22
2023-05-05T14:06:19.282Z,98219.34
2023-05-05T14:08:47.168Z,98212.81
2023-05-05T14:11:17.073Z,98219.34
2023-05-05T14:13:46.436Z,98185.22
2023-05-05T14:16:14.829Z,98212.78
2023-05-05T14:18:42.526Z,98214.34
2023-05-05T14:21:12.266Z,98205.97
2023-05-05T14:23:39.997Z,98205.44
2023-05-05T14:26:08.929Z,98219.34
2023-05-05T14:28:36.730Z,98244.25
2023-05-05T14:31:04.515Z,98241.34
2023-05-05T14:33:32.191Z,98241.63
2023-05-05T14:35:59.943Z,98237.44
2023-05-05T14:38:29.033Z,98247.41
2023-05-05T14:40:56.875Z,98248.19
2023-05-05T14:43:24.486Z,98246.03
2023-05-05T14:45:52.698Z,98290.19
2023-05-05T14:48:22.262Z,98240.50
2023-05-05T14:50:50.141Z,98204.78
2023-05-05T14:53:18.918Z,98321.59
2023-05-05T14:55:47.936Z,98552.53
2023-05-05T14:58:15.591Z,98608.03
2023-05-05T15:00:43.337Z,98690.00
2023-05-05T15:03:11.127Z,98708.19
2023-05-05T15:05:38.835Z,98767.84
2023-05-05T15:08:07.042Z,98793.41
2023-05-05T15:10:34.659Z,98806.16
2023-05-05T15:13:03.776Z,98858.00
2023-05-05T15:15:31.516Z,98923.28
2023-05-05T15:17:59.262Z,98983.31
2023-05-05T15:20:27.108Z,99012.50
2023-05-05T15:22:55.091Z,98979.47
2023-05-05T15:25:22.970Z,98984.94
2023-05-05T15:27:50.949Z,98967.63
2023-05-05T15:30:20.033Z,98958.44
2023-05-05T15:32:48.016Z,98913.13
2023-05-05T15:35:15.761Z,98963.66
2023-05-05T15:37:43.505Z,98960.00
2023-05-05T15:40:12.148Z,98913.03
2023-05-05T15:42:39.679Z,98910.72
2023-05-05T15:45:11.955Z,98939.16
2023-05-05T15:47:41.067Z,99006.91
2023-05-05T15:50:09.562Z,99039.88
2023-05-05T15:52:37.262Z,99003.41
2023-05-05T15:55:05.637Z,99099.69
2023-05-05T15:57:34.387Z,99085.34
2023-05-05T16:00:02.184Z,99082.56
2023-05-05T16:02:30.011Z,99125.69
2023-05-05T16:04:59.112Z,99187.66
2023-05-05T16:07:26.968Z,99192.50
2023-05-05T16:09:54.575Z,99239.75
2023-05-05T16:12:22.470Z,99260.75
2023-05-05T16:14:50.197Z,99269.22
2023-05-05T16:17:18.168Z,99259.13
2023-05-05T16:19:46.215Z,99270.34
2023-05-05T16:22:15.429Z,99248.19
2023-05-05T16:24:44.277Z,99252.03
2023-05-05T16:27:12.087Z,99317.88
2023-05-05T16:29:39.828Z,99295.25
2023-05-05T16:32:07.578Z,99296.25
2023-05-05T16:34:35.337Z,99323.03
2023-05-05T16:37:03.400Z,99315.78
2023-05-05T16:39:32.945Z,99293.59
2023-05-05T16:42:00.730Z,99239.88
2023-05-05T16:44:28.387Z,99221.00
2023-05-05T16:46:56.076Z,99227.78
2023-05-05T16:49:24.328Z,99268.84
2023-05-05T16:51:52.469Z,99260.56
2023-05-05T16:54:20.181Z,99260.53
2023-05-05T16:56:49.305Z,99293.81
2023-05-05T16:59:19.063Z,99296.03
2023-05-05T17:01:46.932Z,99303.22
2023-05-05T17:04:14.840Z,99293.59
2023-05-05T17:06:42.599Z,99303.41
2023-05-05T17:09:10.302Z,99308.13
2023-05-05T17:11:38.091Z,99285.41
2023-05-05T17:14:07.107Z,99274.97
2023-05-05T17:16:34.945Z,99285.59
2023-05-05T17:19:02.622Z,99309.66
2023-05-05T17:21:30.336Z,99328.94
2023-05-05T17:23:58.034Z,99323.41
2023-05-05T17:26:25.758Z,99274.34
2023-05-05T17:28:53.465Z,99267.63
2023-05-05T17:31:22.548Z,99272.91
2023-05-05T17:33:50.182Z,99270.38
2023-05-05T17:36:17.868Z,99280.66
2023-05-05T17:38:45.487Z,99257.66
2023-05-05T17:41:13.198Z,99273.06
2023-05-05T17:43:41.008Z,99269.06
2023-05-05T17:46:08.679Z,99305.63
2023-05-05T17:48:37.871Z,99307.91
2023-05-05T17:51:05.715Z,99275.88
2023-05-05T17:53:33.437Z,99285.28
2023-05-05T17:56:01.188Z,99299.44
2023-05-05T17:58:28.934Z,99318.16
2023-05-05T18:00:56.675Z,99304.28
2023-05-05T18:03:24.472Z,99275.44
2023-05-05T18:05:53.717Z,99269.53
2023-05-05T18:08:21.574Z,99260.16
2023-05-05T18:10:49.353Z,99290.94
2023-05-05T18:13:17.001Z,99273.06
2023-05-05T18:15:44.746Z,99248.75
2023-05-05T18:18:12.513Z,99222.53
2023-05-05T18:20:41.018Z,99216.63
2023-05-05T18:23:11.121Z,99197.75
2023-05-05T18:25:38.849Z,99193.44
2023-05-05T18:28:06.524Z,99190.41
2023-05-05T18:30:35.688Z,99202.44
2023-05-05T18:33:03.489Z,99176.16
2023-05-05T18:35:31.724Z,99184.84
2023-05-05T18:37:59.543Z,99175.97
2023-05-05T18:40:28.627Z,99188.91
2023-05-05T18:42:56.708Z,99220.22
2023-05-05T18:45:24.530Z,99253.34
2023-05-05T18:47:52.453Z,99275.13
2023-05-05T18:50:20.212Z,99253.38
2023-05-05T18:52:47.857Z,99235.22
2023-05-05T18:55:15.721Z,99235.63
2023-05-05T18:57:44.808Z,99220.22
2023-05-05T19:00:13.411Z,99197.03
2023-05-05T19:02:41.043Z,99216.28
2023-05-05T19:05:09.952Z,99231.25
2023-05-05T19:07:37.878Z,99247.84
2023-05-05T19:10:06.320Z,99265.84
2023-05-05T19:12:34.071Z,99268.69
2023-05-05T19:15:03.476Z,99294.16
2023-05-05T19:17:31.182Z,99312.47
2023-05-05T19:19:58.892Z,99334.50
2023-05-05T19:22:26.710Z,99333.41
2023-05-05T19:24:54.442Z,99346.69
2023-05-05T19:27:22.179Z,99357.13
2023-05-05T19:29:52.348Z,99352.69
2023-05-05T19:32:22.268Z,99365.59
2023-05-05T19:34:50.615Z,99363.94
2023-05-05T19:37:18.316Z,99367.25
2023-05-05T19:39:46.024Z,99375.06
2023-05-05T19:42:13.699Z,99354.66
2023-05-05T19:44:41.330Z,99320.03
2023-05-05T19:47:10.868Z,99261.84
2023-05-05T19:49:40.291Z,99186.34
2023-05-05T19:52:08.021Z,99148.28
2023-05-05T19:54:36.154Z,99158.84
2023-05-05T19:57:03.864Z,99161.88
2023-05-05T19:59:31.745Z,99185.78
2023-05-05T20:01:59.485Z,99201.53
2023-05-05T20:04:27.272Z,99207.34
2023-05-05T20:06:57.234Z,99225.94
2023-05-05T20:09:24.926Z,99245.78
2023-05-05T20:11:52.574Z,99258.09
2023-05-05T20:14:20.176Z,99276.91
2023-05-05T20:16:47.955Z,99283.69
2023-05-05T20:19:15.653Z,99294.97
2023-05-05T20:21:43.264Z,99311.94
2023-05-05T20:24:12.475Z,99322.09
2023-05-05T20:26:40.081Z,99333.03
2023-05-05T20:29:07.685Z,99296.88
2023-05-05T20:31:35.897Z,99343.78
2023-05-05T20:34:03.752Z,99311.03
2023-05-05T20:36:31.416Z,99254.47
2023-05-05T20:38:59.088Z,99210.44
2023-05-05T20:41:28.176Z,99156.06
2023-05-05T20:43:55.788Z,99077.06
2023-05-05T20:46:23.645Z,99029.28
2023-05-05T20:48:51.356Z,98971.47
2023-05-05T20:51:19.135Z,98933.34
2023-05-05T20:53:46.772Z,98901.06
2023-05-05T20:56:14.455Z,98865.63
2023-05-05T20:58:43.499Z,98871.00
2023-05-05T21:01:11.299Z,98872.91
2023-05-05T21:03:38.977Z,98848.88
2023-05-05T21:06:06.909Z,98835.03
2023-05-05T21:08:34.886Z,98835.03
2023-05-05T21:11:02.651Z,98849.03
2023-05-05T21:13:30.567Z,98848.00
2023-05-05T21:15:59.627Z,98855.88
2023-05-05T21:18:27.706Z,98866.56
2023-05-05T21:20:55.596Z,98880.88
2023-05-05T21:23:23.357Z,98899.72
2023-05-05T21:25:51.045Z,98929.06
2023-05-05T21:28:18.729Z,98950.47
2023-05-05T21:30:54.854Z,98973.56
2023-05-05T21:33:34.005Z,98983.75
2023-05-05T21:36:01.767Z,98992.13
2023-05-05T21:38:29.514Z,98999.00
2023-05-05T21:40:57.969Z,99009.81
2023-05-05T21:43:28.561Z,99036.91
2023-05-05T21:46:00.017Z,99061.03
2023-05-05T21:48:28.080Z,99076.50
2023-05-05T21:50:57.104Z,99091.41
2023-05-05T21:53:24.900Z,99095.09
2023-05-05T21:55:52.630Z,99090.69
2023-05-05T21:58:20.380Z,99059.16
2023-05-05T22:00:50.082Z,99064.28
2023-05-05T22:03:18.016Z,99061.44
2023-05-05T22:05:46.163Z,99072.22
2023-05-05T22:08:15.224Z,99094.75
2023-05-05T22:10:42.990Z,99087.41
2023-05-05T22:13:11.359Z,99103.53
2023-05-05T22:15:46.743Z,99107.53
2023-05-05T22:18:15.141Z,99117.50
2023-05-05T22:20:43.215Z,99126.94
2023-05-05T22:23:11.181Z,99139.00
2023-05-05T22:25:40.302Z,99151.63
2023-05-05T22:28:07.991Z,99157.22
2023-05-05T22:30:35.682Z,99184.19
2023-05-05T22:33:03.638Z,99197.84
2023-05-05T22:35:32.107Z,99199.09
2023-05-05T22:38:01.430Z,99197.50
2023-05-05T22:40:29.261Z,99192.13
2023-05-05T22:42:58.329Z,99184.50
2023-05-05T22:45:26.263Z,99177.59
2023-05-05T22:47:55.122Z,99186.31
2023-05-05T22:50:22.832Z,99157.69
2023-05-05T22:52:50.568Z,99142.09
2023-05-05T22:55:18.207Z,99126.50
2023-05-05T22:57:46.029Z,99131.28
2023-05-05T23:00:15.440Z,99131.84
2023-05-05T23:02:43.182Z,99129.22
2023-05-05T23:05:11.484Z,99130.81
2023-05-05T23:07:39.427Z,99132.94
2023-05-05T23:10:08.034Z,99121.41
2023-05-05T23:12:35.783Z,99099.94
2023-05-05T23:15:03.562Z,99042.16
2023-05-05T23:17:32.702Z,98999.94
2023-05-05T23:20:00.438Z,98963.41
2023-05-05T23:22:28.136Z,98936.47
2023-05-05T23:24:55.796Z,98906.84
2023-05-05T23:27:23.954Z,98896.69
2023-05-05T23:29:51.665Z,98905.56
2023-05-05T23:32:19.404Z,98922.84
2023-05-05T23:34:48.588Z,98953.22
2023-05-05T23:37:16.285Z,98989.06
2023-05-05T23:39:43.964Z,99021.28
2023-05-05T23:42:11.695Z,98987.94
2023-05-05T23:44:39.321Z,99034.75
2023-05-05T23:47:07.141Z,99026.97
2023-05-05T23:49:34.753Z,99030.09
2023-05-05T23:52:03.813Z,99019.84
2023-05-05T23:54:31.451Z,99002.22
2023-05-05T23:57:00.231Z,98992.06
2023-05-05T23:59:27.923Z,98965.06
